Time;durP1;ratioP1;P1;durP2;ratioP2;P2;SDS_P1;SDS_P2;PMS_P1;PMS_P2;Temp;Humidity;BMP_temperature;BMP_pressure;BME280_temperature;BME280_humidity;BME280_pressure;Samples;Min_cycle;Max_cycle;Signal;HPM_P1;HPM_P2
2022/11/10 00:00:29;;;;;;;54.75;24.63;;;8.60;99.90;;;;;;6231625;23;20030;-79
2022/11/10 00:03:13;;;;;;;57.72;25.42;;;8.50;99.90;;;;;;6241768;23;20098;-81
2022/11/10 00:06:01;;;;;;;52.03;24.45;;;8.50;99.90;;;;;;6241971;23;20024;-81
2022/11/10 00:08:45;;;;;;;55.28;24.40;;;8.50;99.90;;;;;;6234462;23;20035;-79
2022/11/10 00:11:30;;;;;;;60.65;25.88;;;8.50;99.90;;;;;;6234975;23;20130;-80
2022/11/10 00:17:19;;;;;;;53.92;23.02;;;8.40;99.90;;;;;;6229015;23;20094;-82
2022/11/10 00:20:04;;;;;;;52.25;22.95;;;8.50;99.90;;;;;;6229293;23;20024;-81
2022/11/10 00:22:49;;;;;;;;;;;8.50;99.90;;;;;;6230032;23;20027;-82
2022/11/10 00:25:33;;;;;;;52.95;23.35;;;8.50;99.90;;;;;;6229711;23;19910;-80
2022/11/10 00:28:18;;;;;;;53.53;23.80;;;8.50;99.90;;;;;;6228584;23;20063;-81
2022/11/10 00:31:05;;;;;;;49.65;23.00;;;8.50;99.90;;;;;;6233730;23;20047;-80
2022/11/10 00:33:51;;;;;;;49.08;24.10;;;8.50;99.90;;;;;;6233629;23;20050;-81
2022/11/10 00:36:35;;;;;;;52.25;23.95;;;8.40;99.90;;;;;;6236038;23;20019;-79
2022/11/10 00:39:20;;;;;;;48.85;23.02;;;8.40;99.90;;;;;;6236123;23;20096;-81
2022/11/10 00:42:05;;;;;;;47.63;22.10;;;8.40;99.90;;;;;;6208770;23;20039;-81
2022/11/10 00:44:51;;;;;;;50.65;21.98;;;8.40;99.90;;;;;;6226714;23;20104;-82
2022/11/10 00:47:35;;;;;;;49.10;23.42;;;8.40;99.90;;;;;;6205060;23;20506;-80
2022/11/10 00:50:20;;;;;;;49.63;21.88;;;8.40;99.90;;;;;;6228818;23;20054;-80
2022/11/10 00:53:04;;;;;;;;;;;8.30;99.90;;;;;;6207677;23;20018;-80
2022/11/10 00:55:49;;;;;;;43.22;21.42;;;8.30;99.90;;;;;;6228143;23;20038;-82
2022/11/10 00:58:33;;;;;;;49.78;22.65;;;8.40;99.90;;;;;;6253179;22;20042;-86
2022/11/10 01:01:20;;;;;;;50.60;22.52;;;8.40;99.90;;;;;;6248673;23;20082;-87
2022/11/10 01:04:05;;;;;;;52.22;24.00;;;8.40;99.90;;;;;;6274409;22;20023;-87
2022/11/10 01:06:51;;;;;;;54.72;24.02;;;8.40;99.90;;;;;;6252587;22;20010;-86
2022/11/10 01:09:35;;;;;;;57.75;22.58;;;8.40;99.90;;;;;;6221981;23;20032;-87
2022/11/10 01:12:21;;;;;;;55.60;23.13;;;8.40;99.90;;;;;;6223094;23;20047;-86
2022/11/10 01:15:06;;;;;;;55.20;22.13;;;8.40;99.90;;;;;;6222513;23;20035;-86
2022/11/10 01:17:53;;;;;;;60.15;25.20;;;8.40;99.90;;;;;;6218853;23;20035;-86
2022/11/10 01:20:40;;;;;;;54.83;23.17;;;8.50;99.90;;;;;;6238391;23;20023;-87
2022/11/10 01:23:25;;;;;;;65.28;24.63;;;8.50;99.90;;;;;;6205524;23;20015;-87
2022/11/10 01:26:09;;;;;;;60.95;22.05;;;8.60;99.90;;;;;;6204438;23;20019;-86
2022/11/10 01:28:54;;;;;;;63.87;24.10;;;8.50;99.90;;;;;;6202905;23;20066;-88
2022/11/10 01:31:39;;;;;;;55.92;23.77;;;8.60;99.90;;;;;;6203680;23;20776;-88
2022/11/10 01:34:23;;;;;;;55.97;22.77;;;8.60;99.90;;;;;;6203327;23;20063;-87
2022/11/10 01:37:08;;;;;;;68.07;25.52;;;8.50;99.90;;;;;;6203948;23;20351;-87
2022/11/10 01:39:53;;;;;;;68.47;25.50;;;8.50;99.90;;;;;;6207011;23;20024;-88
2022/11/10 01:42:48;;;;;;;70.50;27.45;;;8.60;99.90;;;;;;6205889;23;20071;-88
2022/11/10 01:45:47;;;;;;;68.90;24.80;;;8.50;99.90;;;;;;6225118;23;20067;-88
2022/11/10 01:48:48;;;;;;;68.97;26.00;;;8.50;99.90;;;;;;6227703;23;20043;-87
2022/11/10 01:51:45;;;;;;;62.28;24.85;;;8.50;99.90;;;;;;6206505;23;20023;-86
2022/11/10 01:54:45;;;;;;;60.47;24.65;;;8.40;99.90;;;;;;6225870;23;20024;-87
2022/11/10 01:57:29;;;;;;;47.78;19.83;;;8.40;99.90;;;;;;6206332;23;20023;-87
2022/11/10 02:00:14;;;;;;;46.58;20.92;;;8.30;99.90;;;;;;6238835;23;20068;-88
2022/11/10 02:02:58;;;;;;;;;;;8.20;99.90;;;;;;6243363;22;20023;-85
2022/11/10 02:05:43;;;;;;;41.70;18.48;;;8.10;99.90;;;;;;6243022;22;19899;-86
2022/11/10 02:08:28;;;;;;;46.50;20.15;;;8.10;99.90;;;;;;6242779;22;20007;-85
2022/11/10 02:11:12;;;;;;;49.35;20.42;;;8.00;99.90;;;;;;6243782;22;20011;-87
2022/11/10 02:13:58;;;;;;;49.67;21.10;;;7.90;99.90;;;;;;6243725;22;20068;-87
2022/11/10 02:16:42;;;;;;;43.83;19.73;;;7.80;99.90;;;;;;6242831;22;20012;-85
2022/11/10 02:19:27;;;;;;;47.75;21.58;;;7.80;99.90;;;;;;6243305;22;20055;-86
2022/11/10 02:22:12;;;;;;;47.17;22.17;;;7.70;99.90;;;;;;6222044;22;20028;-86
2022/11/10 02:24:57;;;;;;;47.83;22.15;;;7.70;99.90;;;;;;6221660;22;20011;-87
2022/11/10 02:27:41;;;;;;;;;;;7.70;99.90;;;;;;6221578;23;20092;-84
2022/11/10 02:30:26;;;;;;;44.08;19.48;;;7.70;99.90;;;;;;6220925;23;19922;-86
2022/11/10 02:33:10;;;;;;;44.00;21.15;;;7.70;99.90;;;;;;6221562;22;20015;-87
2022/11/10 02:35:55;;;;;;;50.70;22.13;;;7.70;99.90;;;;;;6243249;22;20031;-87
2022/11/10 02:38:40;;;;;;;45.00;20.85;;;7.70;99.90;;;;;;6242950;22;20031;-87
2022/11/10 02:41:25;;;;;;;45.33;21.17;;;7.80;99.90;;;;;;6242173;22;20027;-87
2022/11/10 02:44:09;;;;;;;46.20;21.13;;;7.80;99.90;;;;;;6220242;23;20055;-86
2022/11/10 02:46:54;;;;;;;49.30;21.95;;;7.80;99.90;;;;;;6241609;23;20007;-88
2022/11/10 02:49:39;;;;;;;48.83;22.25;;;7.70;99.90;;;;;;6241937;23;20016;-86
2022/11/10 02:52:23;;;;;;;46.65;22.05;;;7.70;99.90;;;;;;6220457;23;20031;-88
2022/11/10 02:55:08;;;;;;;45.45;21.15;;;7.70;99.90;;;;;;6238948;23;20093;-87
2022/11/10 02:57:54;;;;;;;46.45;22.30;;;7.70;99.90;;;;;;6240686;22;20074;-86
2022/11/10 03:00:38;;;;;;;49.10;22.67;;;7.70;99.90;;;;;;6242130;22;20007;-87
2022/11/10 03:03:23;;;;;;;51.17;22.98;;;7.70;99.90;;;;;;6218753;22;20004;-85
2022/11/10 03:06:08;;;;;;;52.35;21.77;;;7.70;99.90;;;;;;6242538;22;20019;-84
2022/11/10 03:08:52;;;;;;;46.63;22.92;;;7.70;99.90;;;;;;6242502;22;20023;-84
2022/11/10 03:11:37;;;;;;;48.70;22.52;;;7.70;99.90;;;;;;6221474;22;20081;-85
2022/11/10 03:14:22;;;;;;;45.95;21.77;;;7.70;99.90;;;;;;6221529;22;20019;-86
2022/11/10 03:17:07;;;;;;;50.35;22.75;;;7.70;99.90;;;;;;6242934;22;20031;-86
2022/11/10 03:19:51;;;;;;;48.22;22.95;;;7.70;99.90;;;;;;6220711;22;20019;-86
2022/11/10 03:22:36;;;;;;;50.55;22.75;;;7.70;99.90;;;;;;6242802;22;20051;-86
2022/11/10 03:25:21;;;;;;;52.95;23.67;;;7.70;99.90;;;;;;6220639;22;20012;-85
2022/11/10 03:28:05;;;;;;;50.58;22.55;;;7.70;99.90;;;;;;6220255;22;20012;-86
2022/11/10 03:30:50;;;;;;;49.42;22.80;;;7.70;99.90;;;;;;6221297;22;20069;-84
2022/11/10 03:33:35;;;;;;;44.65;22.85;;;7.70;99.90;;;;;;6220847;22;20039;-86
2022/11/10 03:36:19;;;;;;;45.28;22.83;;;7.70;99.90;;;;;;6220981;22;20012;-85
2022/11/10 03:39:04;;;;;;;49.60;22.67;;;7.80;99.90;;;;;;6242430;22;20008;-84
2022/11/10 03:41:49;;;;;;;44.83;21.42;;;7.70;99.90;;;;;;6221223;22;20024;-84
2022/11/10 03:44:34;;;;;;;48.20;22.92;;;7.70;99.90;;;;;;6245134;22;20014;-86
2022/11/10 03:47:18;;;;;;;49.15;22.58;;;7.80;99.90;;;;;;6244665;22;20016;-87
2022/11/10 03:50:04;;;;;;;49.00;21.30;;;7.80;99.90;;;;;;6242714;23;20031;-86
2022/11/10 03:52:48;;;;;;;;;;;7.80;99.90;;;;;;6222180;23;20012;-86
2022/11/10 03:55:33;;;;;;;47.33;22.40;;;7.90;99.90;;;;;;6244605;22;19918;-85
2022/11/10 03:58:17;;;;;;;45.25;22.55;;;7.90;99.90;;;;;;6243477;22;20039;-87
2022/11/10 04:01:02;;;;;;;43.33;20.83;;;7.90;99.90;;;;;;6244092;22;20035;-85
2022/11/10 04:03:47;;;;;;;48.17;21.88;;;7.90;99.90;;;;;;6222260;22;20020;-86
2022/11/10 04:09:35;;;;;;;42.22;20.15;;;8.00;99.90;;;;;;6233540;23;20215;-87
2022/11/10 04:18:25;;;;;;;43.92;21.35;;;8.00;99.90;;;;;;6227363;23;20091;-87
2022/11/10 04:21:11;;;;;;;42.80;19.55;;;8.00;99.90;;;;;;6227535;23;20022;-87
2022/11/10 04:23:55;;;;;;;44.97;22.35;;;8.00;99.90;;;;;;6227649;23;20019;-85
2022/11/10 04:26:41;;;;;;;46.80;21.33;;;8.00;99.90;;;;;;6209468;23;20039;-87
2022/11/10 04:29:26;;;;;;;45.67;20.55;;;8.00;99.90;;;;;;6234030;23;20035;-87
2022/11/10 04:32:11;;;;;;;44.90;21.65;;;8.00;99.90;;;;;;6218139;23;20022;-87
2022/11/10 04:34:55;;;;;;;47.85;21.50;;;8.00;99.90;;;;;;6221184;23;20031;-86
2022/11/10 04:37:40;;;;;;;44.33;20.00;;;8.00;99.90;;;;;;6222580;22;20019;-87
2022/11/10 04:40:28;;;;;;;41.72;19.20;;;8.10;99.90;;;;;;6244382;22;20128;-87
2022/11/10 04:43:12;;;;;;;43.38;20.27;;;8.10;99.90;;;;;;6243835;22;20020;-89
2022/11/10 04:45:57;;;;;;;43.25;20.95;;;8.10;99.90;;;;;;6219032;23;20055;-85
2022/11/10 04:48:42;;;;;;;46.05;20.63;;;8.20;99.90;;;;;;6242986;22;20043;-86
2022/11/10 04:51:40;;;;;;;42.55;20.23;;;8.20;99.90;;;;;;6221972;22;20027;-85
2022/11/10 04:54:25;;;;;;;39.33;19.35;;;8.20;99.90;;;;;;6221803;22;20047;-87
2022/11/10 04:57:09;;;;;;;41.90;19.70;;;8.20;99.90;;;;;;6244405;22;20011;-85
2022/11/10 04:59:54;;;;;;;40.47;18.45;;;8.20;99.90;;;;;;6244117;22;20011;-86
2022/11/10 05:02:39;;;;;;;37.33;18.65;;;8.20;99.90;;;;;;6243586;22;20032;-85
2022/11/10 05:05:23;;;;;;;38.75;19.73;;;8.20;99.90;;;;;;6221754;22;20024;-86
2022/11/10 05:08:09;;;;;;;44.60;19.75;;;8.20;99.90;;;;;;6221667;22;20015;-86
2022/11/10 05:10:53;;;;;;;37.80;18.10;;;8.30;99.90;;;;;;6221145;23;20019;-86
2022/11/10 05:13:38;;;;;;;37.60;18.27;;;8.30;99.90;;;;;;6221500;23;20035;-87
2022/11/10 05:16:23;;;;;;;38.60;19.70;;;8.30;99.90;;;;;;6216688;23;20039;-88
2022/11/10 05:19:08;;;;;;;41.85;19.92;;;8.20;99.90;;;;;;6229431;23;20525;-86
2022/11/10 05:21:52;;;;;;;47.55;21.00;;;8.20;99.90;;;;;;6226381;23;20024;-86
2022/11/10 05:24:36;;;;;;;46.67;21.15;;;8.30;99.90;;;;;;6224970;23;20040;-87
2022/11/10 05:27:21;;;;;;;41.05;19.90;;;8.20;99.90;;;;;;6208424;23;20019;-86
2022/11/10 05:30:06;;;;;;;48.17;20.33;;;8.20;99.90;;;;;;6204205;23;20063;-87
2022/11/10 05:32:51;;;;;;;41.13;18.83;;;8.20;99.90;;;;;;6224611;23;20024;-87
2022/11/10 05:35:36;;;;;;;42.08;18.52;;;8.20;99.90;;;;;;6225189;23;20032;-86
2022/11/10 05:38:21;;;;;;;38.53;18.33;;;8.20;99.90;;;;;;6202672;23;20024;-87
2022/11/10 05:41:08;;;;;;;39.90;18.70;;;8.30;99.90;;;;;;6202813;23;20038;-86
2022/11/10 05:43:52;;;;;;;41.25;18.63;;;8.30;99.90;;;;;;6201085;23;20020;-86
2022/11/10 05:46:37;;;;;;;41.30;19.65;;;8.30;99.90;;;;;;6225324;23;20436;-86
2022/11/10 05:49:22;;;;;;;44.03;19.08;;;8.40;99.90;;;;;;6225660;23;20022;-87
2022/11/10 05:52:06;;;;;;;;;;;8.40;99.90;;;;;;6227640;23;20523;-87
2022/11/10 05:54:51;;;;;;;38.78;18.90;;;8.40;99.90;;;;;;6206433;23;19931;-86
2022/11/10 05:57:35;;;;;;;41.57;19.13;;;8.50;99.90;;;;;;6235151;23;20358;-85
2022/11/10 06:00:22;;;;;;;38.17;19.92;;;8.50;99.90;;;;;;6216960;23;20012;-86
2022/11/10 06:03:12;;;;;;;43.20;19.23;;;8.50;99.90;;;;;;6241533;23;20032;-87
2022/11/10 06:05:57;;;;;;;40.03;18.95;;;8.50;99.90;;;;;;6242190;22;20043;-87
2022/11/10 06:08:42;;;;;;;38.58;18.08;;;8.50;99.90;;;;;;6220180;22;20024;-87
2022/11/10 06:11:26;;;;;;;44.65;18.42;;;8.50;99.90;;;;;;6243088;22;20088;-90
2022/11/10 06:14:12;;;;;;;37.58;18.00;;;8.50;99.90;;;;;;6242898;22;20071;-88
2022/11/10 06:16:56;;;;;;;36.22;17.52;;;8.50;99.90;;;;;;6218248;23;20036;-87
2022/11/10 06:19:41;;;;;;;36.53;17.92;;;8.50;99.90;;;;;;6238516;22;20061;-89
2022/11/10 06:22:25;;;;;;;34.17;17.02;;;8.60;99.90;;;;;;6218259;22;20020;-86
2022/11/10 06:25:11;;;;;;;38.38;17.73;;;8.60;99.90;;;;;;6238951;23;20008;-86
2022/11/10 06:28:01;;;;;;;37.03;18.92;;;8.60;99.90;;;;;;6237503;23;20438;-87
2022/11/10 06:30:46;;;;;;;37.50;18.23;;;8.60;99.90;;;;;;6219311;23;20039;-90
2022/11/10 06:33:37;;;;;;;40.40;19.98;;;8.70;99.90;;;;;;6220326;22;20019;-88
2022/11/10 06:36:22;;;;;;;42.92;19.63;;;8.70;99.90;;;;;;6242810;22;20024;-90
2022/11/10 06:39:08;;;;;;;44.30;19.70;;;8.70;99.90;;;;;;6241982;22;20035;-88
2022/11/10 06:41:52;;;;;;;;;;;8.70;99.90;;;;;;6239012;23;20028;-87
2022/11/10 06:44:36;;;;;;;40.90;18.92;;;8.80;99.90;;;;;;6216899;23;19907;-86
2022/11/10 06:47:26;;;;;;;45.30;19.83;;;8.90;99.90;;;;;;6218547;23;20022;-84
2022/11/10 06:50:11;;;;;;;42.95;19.08;;;8.90;99.90;;;;;;6217980;23;20024;-86
2022/11/10 06:52:59;;;;;;;41.53;19.00;;;8.90;99.90;;;;;;6236473;23;20028;-87
2022/11/10 06:55:44;;;;;;;42.75;19.25;;;8.90;99.90;;;;;;6226631;23;20019;-88
2022/11/10 06:58:28;;;;;;;40.80;18.45;;;9.00;99.90;;;;;;6236234;22;20027;-80
2022/11/10 07:01:13;;;;;;;34.85;17.60;;;9.00;99.90;;;;;;6256740;23;20058;-79
2022/11/10 07:03:57;;;;;;;42.77;19.10;;;9.00;99.90;;;;;;6255931;23;20014;-79
2022/11/10 07:06:41;;;;;;;43.05;19.20;;;9.10;99.90;;;;;;6252467;23;20117;-78
2022/11/10 07:09:25;;;;;;;33.83;16.73;;;9.20;99.90;;;;;;6227948;23;20019;-78
2022/11/10 07:12:10;;;;;;;38.47;18.92;;;9.20;99.90;;;;;;6251807;23;20062;-79
2022/11/10 07:14:54;;;;;;;34.60;16.52;;;9.30;99.90;;;;;;6252704;23;20062;-77
2022/11/10 07:17:39;;;;;;;36.45;18.27;;;9.40;99.90;;;;;;6259700;23;20031;-78
2022/11/10 07:20:25;;;;;;;33.00;17.00;;;9.50;99.90;;;;;;6270538;22;20026;-79
2022/11/10 07:23:09;;;;;;;;;;;9.50;99.90;;;;;;6272105;23;20023;-77
2022/11/10 07:25:54;;;;;;;37.35;17.63;;;9.60;99.90;;;;;;6272167;23;19918;-77
2022/11/10 07:28:38;;;;;;;39.90;19.23;;;9.60;99.90;;;;;;6271154;23;20011;-78
2022/11/10 07:31:23;;;;;;;39.05;18.65;;;9.70;99.90;;;;;;6270202;23;20072;-78
2022/11/10 07:34:08;;;;;;;46.50;19.83;;;9.80;99.90;;;;;;6240782;23;20107;-79
2022/11/10 07:36:53;;;;;;;39.33;17.63;;;9.80;99.90;;;;;;6236635;23;20166;-80
2022/11/10 07:39:37;;;;;;;41.90;18.47;;;9.80;99.90;;;;;;6254135;23;20026;-79
2022/11/10 07:42:21;;;;;;;36.35;16.95;;;9.90;99.90;;;;;;6255097;23;20023;-79
2022/11/10 07:45:07;;;;;;;35.72;17.10;;;10.00;99.90;;;;;;6253097;23;20097;-78
2022/11/10 07:47:58;;;;;;;35.80;17.45;;;10.10;99.90;;;;;;6252067;23;20081;-78
2022/11/10 07:50:43;;;;;;;38.70;17.45;;;10.30;99.90;;;;;;6253626;23;20023;-77
2022/11/10 07:53:27;;;;;;;33.17;18.40;;;10.40;99.90;;;;;;6254191;23;20074;-77
2022/11/10 07:56:11;;;;;;;39.00;16.23;;;10.40;99.90;;;;;;6253065;23;20508;-79
2022/11/10 07:58:56;;;;;;;36.88;17.23;;;10.60;99.90;;;;;;6237919;23;20023;-77
2022/11/10 08:01:41;;;;;;;43.00;17.27;;;10.60;99.90;;;;;;6229040;23;20023;-80
2022/11/10 08:04:25;;;;;;;37.60;18.08;;;10.60;99.90;;;;;;6228042;23;20084;-80
2022/11/10 08:07:09;;;;;;;34.03;17.65;;;10.70;99.90;;;;;;6223333;23;20072;-78
2022/11/10 08:09:54;;;;;;;36.60;16.80;;;10.80;99.90;;;;;;6220718;23;20095;-80
2022/11/10 08:12:39;;;;;;;37.97;16.95;;;11.00;99.90;;;;;;6220550;23;20073;-77
2022/11/10 08:15:25;;;;;;;31.27;15.93;;;11.20;99.90;;;;;;6224057;23;20067;-81
2022/11/10 08:18:20;;;;;;;30.17;15.15;;;11.20;99.90;;;;;;6222682;23;20386;-78
2022/11/10 08:21:05;;;;;;;38.13;17.13;;;11.30;99.90;;;;;;6229132;23;20035;-78
2022/11/10 08:23:50;;;;;;;41.78;15.82;;;11.40;99.90;;;;;;6210275;23;20020;-77
2022/11/10 08:26:35;;;;;;;33.13;16.00;;;11.50;99.90;;;;;;6206024;23;20019;-78
2022/11/10 08:29:20;;;;;;;36.33;15.55;;;11.50;99.90;;;;;;6224518;23;20019;-77
2022/11/10 08:32:04;;;;;;;31.85;14.90;;;11.60;99.90;;;;;;6199359;23;20051;-77
2022/11/10 08:34:49;;;;;;;32.42;15.25;;;11.70;99.90;;;;;;6221728;23;20027;-78
2022/11/10 08:37:33;;;;;;;30.60;14.60;;;11.80;99.90;;;;;;6200022;23;20043;-79
2022/11/10 08:40:19;;;;;;;29.02;14.70;;;12.00;99.90;;;;;;6233649;23;20266;-78
2022/11/10 08:43:07;;;;;;;29.20;14.07;;;12.00;99.90;;;;;;6207070;23;20358;-77
2022/11/10 08:45:55;;;;;;;23.48;10.75;;;12.10;99.90;;;;;;6221238;23;20023;-79
2022/11/10 08:48:39;;;;;;;16.00;7.95;;;12.20;99.90;;;;;;6221147;23;20465;-78
2022/11/10 08:51:24;;;;;;;14.55;6.20;;;12.50;99.90;;;;;;6217307;23;20509;-79
2022/11/10 08:54:09;;;;;;;10.30;5.78;;;12.70;99.90;;;;;;6220040;23;20107;-76
2022/11/10 08:56:53;;;;;;;13.55;6.72;;;12.70;99.90;;;;;;6224016;23;20023;-76
2022/11/10 08:59:37;;;;;;;13.48;6.38;;;12.80;99.90;;;;;;6224021;23;20051;-77
2022/11/10 09:02:21;;;;;;;13.32;4.85;;;12.90;99.90;;;;;;6225681;23;20027;-77
2022/11/10 09:05:07;;;;;;;10.32;4.68;;;13.00;99.90;;;;;;6229507;23;20085;-77
2022/11/10 09:07:51;;;;;;;;;;;13.10;99.90;;;;;;6225548;23;20549;-78
2022/11/10 09:10:38;;;;;;;16.73;4.68;;;13.30;99.90;;;;;;6221814;23;19925;-78
2022/11/10 09:13:23;;;;;;;9.32;5.10;;;13.40;99.90;;;;;;6223355;23;20027;-78
2022/11/10 09:16:07;;;;;;;9.10;4.15;;;13.50;99.90;;;;;;6208251;23;20024;-81
2022/11/10 09:18:52;;;;;;;9.52;5.90;;;13.70;99.90;;;;;;6227341;23;20020;-77
2022/11/10 09:21:36;;;;;;;13.90;6.80;;;13.90;99.90;;;;;;6229072;23;20505;-77
2022/11/10 09:24:21;;;;;;;6.05;3.85;;;14.00;99.90;;;;;;6229851;23;20019;-77
2022/11/10 09:27:06;;;;;;;6.28;3.63;;;14.10;99.90;;;;;;6230740;23;20023;-77
2022/11/10 09:29:50;;;;;;;6.65;3.20;;;14.10;99.90;;;;;;6231740;23;20062;-79
2022/11/10 09:32:36;;;;;;;8.27;3.17;;;14.20;99.90;;;;;;6230233;23;20097;-77
2022/11/10 09:35:21;;;;;;;8.30;3.45;;;14.10;99.90;;;;;;6229394;23;20024;-78
2022/11/10 09:38:06;;;;;;;;;;;14.20;99.90;;;;;;6227320;23;20390;-76
2022/11/10 09:41:02;;;;;;;8.40;2.88;;;14.30;99.90;;;;;;6235640;23;19918;-77
2022/11/10 09:44:10;;;;;;;5.35;2.70;;;14.30;99.90;;;;;;6241016;23;20015;-77
2022/11/10 09:47:08;;;;;;;8.52;4.40;;;14.30;99.90;;;;;;6242157;23;20015;-77
2022/11/10 09:49:59;;;;;;;4.50;2.58;;;14.40;99.90;;;;;;6232912;23;20082;-78
2022/11/10 09:52:46;;;;;;;6.53;3.55;;;14.40;99.90;;;;;;6219070;23;20019;-77
2022/11/10 09:55:40;;;;;;;5.40;2.50;;;14.30;99.90;;;;;;6220009;23;20028;-77
2022/11/10 09:58:31;;;;;;;7.75;2.90;;;14.30;99.90;;;;;;6198687;23;20038;-78
2022/11/10 10:01:35;;;;;;;4.95;2.75;;;14.30;99.90;;;;;;6198174;23;20043;-80
2022/11/10 10:04:32;;;;;;;9.85;4.95;;;14.40;99.90;;;;;;6220173;23;20123;-79
2022/11/10 10:07:25;;;;;;;8.13;3.45;;;14.40;99.90;;;;;;6221719;23;20019;-77
2022/11/10 10:10:21;;;;;;;8.70;2.80;;;14.40;99.90;;;;;;6219646;23;20035;-80
2022/11/10 10:13:18;;;;;;;7.40;3.23;;;14.40;99.90;;;;;;6221515;23;20023;-79
2022/11/10 10:16:31;;;;;;;7.05;3.42;;;14.50;99.90;;;;;;6222544;23;20043;-80
2022/11/10 10:19:33;;;;;;;6.65;2.90;;;14.50;99.90;;;;;;6221600;23;20361;-79
2022/11/10 10:22:38;;;;;;;7.25;3.17;;;14.40;99.90;;;;;;6222851;23;20098;-80
2022/11/10 10:25:25;;;;;;;4.40;2.78;;;14.40;99.90;;;;;;6224296;23;20027;-78
2022/11/10 10:28:25;;;;;;;7.53;3.10;;;14.30;99.90;;;;;;6227977;23;20063;-78
2022/11/10 10:31:25;;;;;;;4.78;2.50;;;14.20;99.90;;;;;;6231478;23;20051;-79
2022/11/10 10:34:14;;;;;;;5.82;3.35;;;14.20;99.90;;;;;;6231659;23;20080;-78
2022/11/10 10:36:58;;;;;;;9.68;2.95;;;14.10;99.90;;;;;;6229525;23;20027;-79
2022/11/10 10:39:47;;;;;;;6.05;3.30;;;13.90;99.90;;;;;;6207303;23;20023;-78
2022/11/10 10:42:34;;;;;;;11.13;3.63;;;13.90;99.90;;;;;;6225205;23;20023;-77
2022/11/10 10:45:23;;;;;;;6.53;3.30;;;13.90;99.90;;;;;;6224645;23;20630;-79
2022/11/10 10:48:28;;;;;;;6.43;3.30;;;13.90;99.90;;;;;;6223327;23;20036;-78
2022/11/10 10:51:28;;;;;;;6.38;3.42;;;13.80;99.90;;;;;;6224909;23;20023;-78
2022/11/10 10:54:25;;;;;;;5.22;3.53;;;13.80;99.90;;;;;;6228815;23;20082;-79
2022/11/10 10:57:28;;;;;;;7.97;4.35;;;13.70;99.90;;;;;;6230585;23;20413;-78
2022/11/10 11:00:22;;;;;;;13.43;4.55;;;13.50;99.90;;;;;;6229770;23;20080;-79
2022/11/10 11:03:26;;;;;;;6.05;3.90;;;13.50;99.90;;;;;;6230724;23;20066;-79
2022/11/10 11:06:14;;;;;;;5.47;3.80;;;13.40;99.90;;;;;;6221246;23;20108;-79
2022/11/10 11:09:08;;;;;;;9.20;4.28;;;13.50;99.90;;;;;;6218256;23;20019;-79
2022/11/10 11:12:21;;;;;;;7.50;4.28;;;13.40;99.90;;;;;;6197516;23;20015;-80
2022/11/10 11:15:22;;;;;;;6.28;3.90;;;13.40;99.90;;;;;;6219905;23;20082;-79
2022/11/10 11:18:19;;;;;;;7.85;4.22;;;13.40;99.90;;;;;;6196216;23;20090;-78
2022/11/10 11:21:41;;;;;;;9.80;4.47;;;13.50;99.90;;;;;;6219948;23;20063;-79
2022/11/10 11:24:39;;;;;;;5.90;3.78;;;13.50;99.90;;;;;;6219250;23;20035;-80
2022/11/10 11:27:32;;;;;;;10.20;4.00;;;13.60;99.90;;;;;;6220671;23;20062;-78
2022/11/10 11:30:23;;;;;;;9.60;4.50;;;13.60;99.90;;;;;;6219718;23;20067;-79
2022/11/10 11:33:41;;;;;;;7.53;4.03;;;13.50;99.90;;;;;;6219295;23;20032;-77
2022/11/10 11:36:40;;;;;;;9.85;4.10;;;13.60;99.90;;;;;;6220975;23;20019;-80
2022/11/10 11:39:43;;;;;;;7.35;4.35;;;13.60;99.90;;;;;;6221443;23;20022;-80
2022/11/10 11:43:18;;;;;;;9.60;4.15;;;13.60;99.90;;;;;;6225146;23;20036;-79
2022/11/10 11:46:23;;;;;;;9.80;4.07;;;13.70;99.90;;;;;;6074556;23;20110;-82
2022/11/10 11:49:34;;;;;;;8.50;4.53;;;13.70;99.90;;;;;;6225767;23;20063;-78
2022/11/10 11:52:25;;;;;;;7.05;3.97;;;13.70;99.90;;;;;;6230202;23;20023;-77
2022/11/10 11:55:40;;;;;;;7.00;4.47;;;13.80;99.90;;;;;;6225969;23;20461;-77
2022/11/10 11:58:49;;;;;;;6.10;3.67;;;13.80;99.90;;;;;;6226692;23;20027;-77
2022/11/10 12:01:54;;;;;;;6.78;4.60;;;13.70;99.90;;;;;;6202413;23;20063;-78
2022/11/10 12:04:45;;;;;;;13.13;4.70;;;13.70;99.90;;;;;;6224796;23;20019;-78
2022/11/10 12:07:46;;;;;;;8.27;4.20;;;13.70;99.90;;;;;;6222594;23;20263;-78
2022/11/10 12:10:49;;;;;;;7.43;3.97;;;13.80;99.90;;;;;;6219196;23;20015;-79
2022/11/10 12:13:54;;;;;;;8.00;4.10;;;13.90;99.90;;;;;;6222339;23;20063;-79
2022/11/10 12:16:47;;;;;;;10.43;4.45;;;13.90;99.90;;;;;;6225770;23;20019;-81
2022/11/10 12:19:48;;;;;;;5.25;3.80;;;14.00;99.90;;;;;;6203343;23;20147;-81
2022/11/10 12:22:35;;;;;;;7.68;3.92;;;14.10;99.90;;;;;;6225154;23;20095;-79
2022/11/10 12:25:22;;;;;;;8.88;4.35;;;14.10;99.90;;;;;;6224123;23;20343;-78
2022/11/10 12:28:07;;;;;;;12.55;4.88;;;14.10;99.90;;;;;;6221866;23;20031;-78
2022/11/10 12:30:54;;;;;;;7.95;4.40;;;14.10;99.90;;;;;;6224502;23;20023;-79
2022/11/10 12:33:57;;;;;;;8.95;4.30;;;14.10;99.90;;;;;;6222701;23;20517;-80
2022/11/10 12:36:42;;;;;;;9.88;4.55;;;14.20;99.90;;;;;;6221823;23;20078;-79
2022/11/10 12:39:40;;;;;;;8.52;4.60;;;14.30;99.90;;;;;;6223581;23;20411;-82
2022/11/10 12:42:27;;;;;;;8.13;4.70;;;14.30;99.90;;;;;;6226243;23;20039;-81
2022/11/10 12:45:36;;;;;;;26.83;13.43;;;14.40;99.90;;;;;;6227930;23;20071;-80
2022/11/10 12:48:22;;;;;;;29.45;12.82;;;14.40;99.90;;;;;;6204389;23;20031;-81
2022/11/10 12:51:28;;;;;;;38.30;17.02;;;14.50;99.90;;;;;;6203326;23;20020;-80
2022/11/10 12:54:16;;;;;;;13.10;4.88;;;14.60;99.90;;;;;;6225238;23;20039;-81
2022/11/10 12:57:22;;;;;;;10.13;5.60;;;14.50;99.90;;;;;;6224996;23;20039;-80
2022/11/10 13:00:23;;;;;;;10.35;5.15;;;14.50;99.90;;;;;;6224257;23;20039;-80
2022/11/10 13:03:14;;;;;;;10.82;5.18;;;14.50;99.90;;;;;;6224523;23;20019;-82
2022/11/10 13:06:25;;;;;;;9.20;5.70;;;14.50;99.90;;;;;;6235137;23;20040;-80
2022/11/10 13:09:35;;;;;;;9.10;5.60;;;14.30;99.90;;;;;;6229239;23;20103;-80
2022/11/10 13:12:24;;;;;;;11.93;5.97;;;14.20;99.90;;;;;;6228326;23;20024;-80
2022/11/10 13:15:34;;;;;;;11.57;5.97;;;14.10;99.90;;;;;;6226391;23;20091;-82
2022/11/10 13:18:43;;;;;;;9.00;5.15;;;14.00;99.90;;;;;;6235305;23;20059;-80
2022/11/10 13:21:49;;;;;;;9.18;5.53;;;14.00;99.90;;;;;;6233003;23;20043;-81
2022/11/10 13:24:39;;;;;;;13.75;5.88;;;13.90;99.90;;;;;;6204168;23;20060;-81
2022/11/10 13:27:42;;;;;;;14.20;6.80;;;13.90;99.90;;;;;;6244051;22;20031;-87
2022/11/10 13:30:44;;;;;;;11.63;6.57;;;13.80;99.90;;;;;;6269772;23;20043;-83
2022/11/10 13:33:32;;;;;;;15.18;6.75;;;13.70;99.90;;;;;;6272416;22;20034;-84
2022/11/10 13:36:42;;;;;;;12.05;7.05;;;13.60;99.90;;;;;;6272443;22;20017;-84
2022/11/10 13:39:30;;;;;;;11.07;6.07;;;13.60;99.90;;;;;;6272494;22;20060;-83
2022/11/10 13:42:22;;;;;;;11.55;6.47;;;13.70;99.90;;;;;;6270095;23;20050;-87
2022/11/10 13:45:30;;;;;;;12.05;6.72;;;13.80;99.90;;;;;;6268809;23;20464;-86
2022/11/10 13:48:24;;;;;;;13.85;7.72;;;13.80;99.90;;;;;;6269587;23;20023;-88
2022/11/10 13:51:34;;;;;;;10.77;6.88;;;13.90;99.90;;;;;;6268411;23;20071;-86
2022/11/10 13:54:31;;;;;;;13.27;7.38;;;14.00;99.90;;;;;;6268458;23;20385;-87
2022/11/10 13:57:20;;;;;;;13.95;6.97;;;14.00;99.90;;;;;;6263153;23;20023;-87
2022/11/10 14:00:15;;;;;;;10.02;7.32;;;14.00;99.90;;;;;;6263470;23;20050;-87
2022/11/10 14:03:01;;;;;;;13.13;7.53;;;13.90;99.90;;;;;;6263168;23;20039;-90
2022/11/10 14:06:03;;;;;;;14.75;7.38;;;13.90;99.90;;;;;;6264306;23;20069;-86
2022/11/10 14:09:24;;;;;;;12.95;7.38;;;13.90;99.90;;;;;;6262414;23;20035;-86
2022/11/10 14:12:33;;;;;;;18.45;7.22;;;13.70;99.90;;;;;;6221328;22;20054;-87
2022/11/10 14:15:36;;;;;;;19.10;8.15;;;13.60;99.90;;;;;;6260850;23;20042;-84
2022/11/10 14:18:41;;;;;;;25.88;7.85;;;13.50;99.90;;;;;;6259965;23;20047;-89
2022/11/10 14:21:54;;;;;;;13.25;7.93;;;13.40;99.90;;;;;;6263904;23;20019;-84
2022/11/10 14:24:55;;;;;;;14.95;8.02;;;13.10;99.90;;;;;;6240778;22;20526;-85
2022/11/10 14:27:42;;;;;;;13.90;8.02;;;12.80;99.90;;;;;;6260716;23;20024;-87
2022/11/10 14:30:30;;;;;;;17.92;8.38;;;12.60;99.90;;;;;;6260912;23;20071;-87
2022/11/10 14:33:14;;;;;;;16.00;8.45;;;12.50;99.90;;;;;;6262384;23;20099;-87
2022/11/10 14:36:04;;;;;;;17.95;8.77;;;12.40;99.90;;;;;;6261972;23;20042;-85
2022/11/10 14:38:51;;;;;;;14.95;8.05;;;12.30;99.90;;;;;;6260512;23;20039;-86
2022/11/10 14:41:35;;;;;;;19.15;8.80;;;12.30;99.90;;;;;;6260201;23;20112;-88
2022/11/10 14:44:26;;;;;;;16.75;8.80;;;12.30;99.90;;;;;;6264910;23;20030;-88
2022/11/10 14:47:31;;;;;;;16.73;8.25;;;12.30;99.90;;;;;;6257717;23;20031;-86